createdAt,value
2022-08-04T00:01:54.427Z,2.40
2022-08-04T00:04:30.984Z,2.32
2022-08-04T00:06:59.230Z,2.61
2022-08-04T00:09:26.336Z,2.46
2022-08-04T00:11:52.891Z,2.39
2022-08-04T00:14:22.001Z,2.75
2022-08-04T00:16:59.407Z,2.70
2022-08-04T00:19:26.206Z,2.59
2022-08-04T00:21:52.805Z,2.35
2022-08-04T00:24:19.392Z,2.35
2022-08-04T00:27:00.029Z,2.59
2022-08-04T00:29:26.995Z,2.39
2022-08-04T00:31:56.309Z,2.21
2022-08-04T00:34:24.018Z,2.26
2022-08-04T00:37:01.216Z,2.42
2022-08-04T00:39:28.299Z,2.40
2022-08-04T00:41:58.615Z,2.69
2022-08-04T00:44:25.553Z,2.53
2022-08-04T00:46:52.461Z,2.57
2022-08-04T00:49:19.032Z,2.54
2022-08-04T00:52:30.612Z,2.65
2022-08-04T00:54:38.601Z,2.57
2022-08-04T00:57:05.284Z,2.48
2022-08-04T00:59:39.067Z,2.30
2022-08-04T01:02:06.642Z,2.34
2022-08-04T01:04:41.766Z,2.34
2022-08-04T01:07:15.520Z,2.50
2022-08-04T01:12:22.499Z,2.59
2022-08-04T01:14:49.158Z,2.54
2022-08-04T01:17:17.011Z,2.21
2022-08-04T01:19:51.204Z,2.09
2022-08-04T01:22:18.152Z,2.14
2022-08-04T01:24:48.361Z,1.99
2022-08-04T01:27:20.712Z,2.04
2022-08-04T01:29:49.813Z,2.33
2022-08-04T01:32:16.516Z,2.18
2022-08-04T01:34:43.107Z,2.34
2022-08-04T01:37:09.722Z,2.41
2022-08-04T01:39:43.849Z,2.20
2022-08-04T01:42:11.125Z,2.16
2022-08-04T01:44:39.354Z,2.26
2022-08-04T01:47:05.947Z,2.33
2022-08-04T01:49:40.362Z,2.10
2022-08-04T01:52:10.607Z,2.40
2022-08-04T01:54:39.051Z,2.31
2022-08-04T01:57:37.540Z,2.22
2022-08-04T01:59:53.425Z,2.24
2022-08-04T02:02:23.271Z,1.96
2022-08-04T02:04:50.274Z,2.23
2022-08-04T02:07:17.431Z,2.27
2022-08-04T02:09:54.073Z,2.37
2022-08-04T02:12:22.381Z,2.12
2022-08-04T02:14:52.920Z,2.04
2022-08-04T02:17:19.985Z,2.21
2022-08-04T02:19:46.729Z,2.02
2022-08-04T02:22:16.570Z,2.18
2022-08-04T02:24:44.164Z,2.09
2022-08-04T02:29:57.866Z,2.34
2022-08-04T02:32:25.449Z,2.25
2022-08-04T02:34:52.185Z,2.16
2022-08-04T02:37:18.786Z,2.26
2022-08-04T02:39:52.902Z,2.33
2022-08-04T02:42:19.527Z,2.09
2022-08-04T02:44:47.616Z,2.35
2022-08-04T02:47:21.982Z,2.17
2022-08-04T02:49:48.915Z,2.08
2022-08-04T02:52:17.733Z,2.28
2022-08-04T02:54:55.086Z,2.20
2022-08-04T02:57:24.118Z,2.07
2022-08-04T02:59:50.665Z,2.04
2022-08-04T03:02:20.914Z,1.98
2022-08-04T03:04:47.628Z,2.17
2022-08-04T03:07:15.829Z,2.12
2022-08-04T03:09:42.734Z,2.17
2022-08-04T03:12:09.365Z,2.04
2022-08-04T03:14:36.087Z,2.08
2022-08-04T03:17:05.395Z,2.10
2022-08-04T03:19:34.079Z,1.98
2022-08-04T03:22:01.020Z,2.23
2022-08-04T03:24:29.616Z,2.06
2022-08-04T03:26:58.433Z,2.41
2022-08-04T03:29:36.075Z,2.16
2022-08-04T03:32:05.661Z,2.24
2022-08-04T03:34:32.473Z,2.18
2022-08-04T03:37:06.667Z,2.35
2022-08-04T03:39:33.285Z,2.24
2022-08-04T03:42:04.686Z,2.38
2022-08-04T03:44:31.787Z,2.23
2022-08-04T03:47:00.421Z,2.27
2022-08-04T03:49:27.157Z,2.35
2022-08-04T03:51:54.048Z,2.19
2022-08-04T03:54:23.057Z,2.36
2022-08-04T04:03:28.201Z,2.26
2022-08-04T04:06:00.269Z,2.32
2022-08-04T04:08:31.994Z,2.45
2022-08-04T04:11:05.686Z,2.23
2022-08-04T04:13:43.745Z,2.28
2022-08-04T04:16:10.344Z,2.48
2022-08-04T04:18:38.225Z,2.27
2022-08-04T04:23:46.181Z,2.38
2022-08-04T04:26:12.797Z,2.31
2022-08-04T04:28:44.993Z,2.46
2022-08-04T04:31:18.267Z,2.54
2022-08-04T04:33:52.427Z,2.23
2022-08-04T04:36:19.142Z,2.47
2022-08-04T04:38:53.067Z,2.58
2022-08-04T04:41:20.085Z,2.45
2022-08-04T04:43:53.906Z,2.57
2022-08-04T04:46:22.787Z,2.41
2022-08-04T04:48:49.694Z,2.55
2022-08-04T04:51:23.891Z,2.58
2022-08-04T04:53:50.625Z,2.58
2022-08-04T04:56:27.199Z,2.70
2022-08-04T04:58:56.230Z,2.57
2022-08-04T05:01:30.185Z,2.55
2022-08-04T05:03:57.187Z,2.67
2022-08-04T05:06:26.052Z,3.04
2022-08-04T05:08:54.562Z,3.02
2022-08-04T05:11:28.773Z,2.91
2022-08-04T05:14:36.437Z,2.94
2022-08-04T05:16:44.034Z,2.80
2022-08-04T05:19:11.510Z,2.88
2022-08-04T05:21:38.463Z,2.59
2022-08-04T05:24:06.761Z,2.75
2022-08-04T05:26:36.821Z,2.31
2022-08-04T05:29:03.376Z,2.50
2022-08-04T05:31:32.356Z,2.51
2022-08-04T05:33:58.951Z,2.91
2022-08-04T05:36:40.495Z,2.30
2022-08-04T05:39:07.877Z,2.41
2022-08-04T05:41:45.289Z,2.37
2022-08-04T05:44:13.333Z,2.37
2022-08-04T05:46:40.066Z,2.37
2022-08-04T05:49:06.664Z,2.27
2022-08-04T05:51:33.279Z,2.30
2022-08-04T05:53:59.801Z,2.33
2022-08-04T05:56:26.407Z,2.18
2022-08-04T05:58:53.158Z,2.31
2022-08-04T06:01:20.137Z,2.33
2022-08-04T06:03:46.878Z,2.29
2022-08-04T06:06:13.608Z,2.05
2022-08-04T06:08:40.268Z,2.30
2022-08-04T06:11:07.018Z,2.47
2022-08-04T06:13:49.608Z,2.37
2022-08-04T06:16:29.361Z,2.50
2022-08-04T06:22:13.382Z,2.39
2022-08-04T06:24:40.633Z,2.07
2022-08-04T06:27:07.212Z,2.32
2022-08-04T06:29:33.920Z,2.27
2022-08-04T06:32:31.616Z,2.50
2022-08-04T06:34:47.570Z,2.33
2022-08-04T06:37:41.552Z,2.22
2022-08-04T06:40:01.073Z,2.55
2022-08-04T06:42:27.805Z,2.70
2022-08-04T06:44:54.515Z,2.33
2022-08-04T06:47:21.509Z,2.40
2022-08-04T06:51:24.569Z,2.71
2022-08-04T06:52:36.111Z,2.69
2022-08-04T06:55:03.073Z,2.85
2022-08-04T06:57:29.757Z,2.48
2022-08-04T07:00:01.288Z,2.29
2022-08-04T07:02:30.225Z,2.42
2022-08-04T07:04:57.158Z,2.58
2022-08-04T07:07:36.573Z,2.77
2022-08-04T07:10:03.872Z,2.58
2022-08-04T07:12:30.714Z,2.52
2022-08-04T07:14:57.361Z,2.39
2022-08-04T07:17:34.660Z,2.49
2022-08-04T07:20:02.415Z,2.69
2022-08-04T07:22:36.954Z,2.62
2022-08-04T07:25:13.495Z,2.67
2022-08-04T07:27:48.618Z,2.50
2022-08-04T07:30:15.815Z,2.34
2022-08-04T07:32:42.570Z,2.44
2022-08-04T07:35:09.172Z,2.67
2022-08-04T07:37:58.866Z,2.62
2022-08-04T07:40:25.835Z,2.78
2022-08-04T07:42:52.509Z,2.76
2022-08-04T07:45:19.276Z,2.68
2022-08-04T07:48:05.047Z,2.85
2022-08-04T07:50:32.709Z,2.80
2022-08-04T07:53:53.501Z,2.79
2022-08-04T07:55:53.873Z,2.65
2022-08-04T08:01:30.361Z,2.83
2022-08-04T08:03:56.929Z,3.10
2022-08-04T08:06:32.746Z,3.13
2022-08-04T08:09:00.677Z,2.77
2022-08-04T08:12:37.906Z,2.88
2022-08-04T08:14:25.750Z,2.93
2022-08-04T08:16:52.689Z,2.75
2022-08-04T08:19:19.239Z,2.94
2022-08-04T08:21:59.297Z,2.87
2022-08-04T08:24:27.314Z,2.83
2022-08-04T08:26:54.241Z,2.98
2022-08-04T08:29:21.000Z,3.12
2022-08-04T08:31:56.712Z,2.74
2022-08-04T08:34:28.263Z,2.66
2022-08-04T08:36:55.444Z,3.01
2022-08-04T08:39:24.735Z,2.89
2022-08-04T08:41:51.983Z,2.90
2022-08-04T08:44:29.977Z,3.02
2022-08-04T08:47:03.320Z,2.97
2022-08-04T08:50:03.061Z,2.79
2022-08-04T08:52:17.918Z,2.73
2022-08-04T08:55:04.517Z,2.90
2022-08-04T08:57:31.454Z,3.09
2022-08-04T08:59:58.010Z,3.03
2022-08-04T09:02:24.946Z,3.16
2022-08-04T09:04:51.928Z,2.71
2022-08-04T09:07:21.772Z,3.36
2022-08-04T09:09:48.564Z,2.91
2022-08-04T09:12:15.733Z,2.84
2022-08-04T09:14:46.578Z,2.98
2022-08-04T09:17:13.567Z,2.79
2022-08-04T09:19:40.526Z,2.88
2022-08-04T09:22:12.098Z,3.08
2022-08-04T09:24:40.194Z,2.71
2022-08-04T09:27:06.928Z,2.99
2022-08-04T09:29:36.011Z,2.86
2022-08-04T09:32:06.698Z,2.69
2022-08-04T09:34:34.859Z,2.97
2022-08-04T09:37:01.879Z,2.86
2022-08-04T09:39:28.842Z,2.79
2022-08-04T09:41:57.205Z,3.05
2022-08-04T09:44:50.974Z,2.85
2022-08-04T09:47:13.195Z,2.87
2022-08-04T09:49:41.138Z,2.89
2022-08-04T09:52:15.292Z,2.88
2022-08-04T09:54:43.999Z,3.50
2022-08-04T09:57:14.630Z,3.36
2022-08-04T09:59:41.519Z,2.80
2022-08-04T10:02:15.587Z,2.57
2022-08-04T10:04:43.639Z,2.44
2022-08-04T10:07:17.955Z,2.73
2022-08-04T10:09:47.565Z,2.73
2022-08-04T10:12:14.522Z,3.02
2022-08-04T10:14:44.106Z,3.02
2022-08-04T10:17:14.074Z,2.63
2022-08-04T10:19:40.872Z,2.79
2022-08-04T10:22:30.984Z,2.62
2022-08-04T10:25:01.889Z,3.00
2022-08-04T10:27:28.965Z,2.63
2022-08-04T10:29:58.805Z,2.60
2022-08-04T10:32:32.865Z,2.96
2022-08-04T10:35:02.716Z,2.74
2022-08-04T10:37:53.280Z,2.49
2022-08-04T10:40:21.879Z,2.94
2022-08-04T10:42:50.536Z,2.57
2022-08-04T10:45:18.759Z,2.68
2022-08-04T10:47:53.436Z,2.64
2022-08-04T10:50:20.430Z,2.81
2022-08-04T10:52:49.111Z,2.56
2022-08-04T10:55:20.913Z,2.43
2022-08-04T10:57:49.169Z,2.50
2022-08-04T11:00:19.621Z,2.78
2022-08-04T11:02:50.087Z,2.64
2022-08-04T11:05:17.527Z,2.57
2022-08-04T11:07:44.247Z,2.57
2022-08-04T11:10:11.826Z,2.87
2022-08-04T11:12:39.352Z,2.66
2022-08-04T11:15:06.146Z,2.46
2022-08-04T11:17:33.477Z,2.47
2022-08-04T11:20:12.609Z,2.53
2022-08-04T11:22:51.296Z,2.57
2022-08-04T11:25:18.369Z,2.62
2022-08-04T11:27:45.365Z,2.58
2022-08-04T11:30:13.511Z,2.62
2022-08-04T11:32:41.626Z,2.46
2022-08-04T11:35:10.116Z,2.75
2022-08-04T11:37:39.169Z,2.88
2022-08-04T11:40:06.670Z,2.74
2022-08-04T11:42:37.598Z,3.01
2022-08-04T11:45:05.493Z,3.15
2022-08-04T11:47:34.074Z,3.18
2022-08-04T11:50:01.080Z,3.08
2022-08-04T11:52:29.930Z,3.68
2022-08-04T11:54:59.697Z,3.32
2022-08-04T11:57:36.446Z,2.85
2022-08-04T12:00:07.876Z,2.89
2022-08-04T12:02:34.914Z,2.78
2022-08-04T12:05:02.084Z,2.87
2022-08-04T12:07:30.986Z,2.92
2022-08-04T12:09:58.751Z,2.77
2022-08-04T12:12:27.645Z,3.07
2022-08-04T12:14:54.509Z,2.81
2022-08-04T12:17:21.777Z,2.81
2022-08-04T12:20:04.079Z,2.95
2022-08-04T12:22:36.144Z,2.60
2022-08-04T12:25:09.691Z,2.61
2022-08-04T12:27:36.495Z,2.81
2022-08-04T12:31:00.486Z,2.89
2022-08-04T12:32:53.542Z,2.90
2022-08-04T12:35:20.596Z,2.97
2022-08-04T12:37:47.810Z,2.85
2022-08-04T12:40:28.906Z,2.71
2022-08-04T12:42:59.791Z,2.76
2022-08-04T12:45:26.725Z,2.81
2022-08-04T12:47:53.682Z,2.76
2022-08-04T12:50:20.400Z,2.86
2022-08-04T12:53:03.656Z,3.14
2022-08-04T12:55:31.740Z,3.06
2022-08-04T12:57:58.629Z,3.13
2022-08-04T13:00:29.792Z,3.15
2022-08-04T13:05:53.699Z,3.05
2022-08-04T13:08:24.174Z,2.98
2022-08-04T13:10:58.236Z,2.97
2022-08-04T13:13:25.915Z,2.99
2022-08-04T13:15:56.460Z,3.31
2022-08-04T13:18:28.902Z,3.07
2022-08-04T13:20:59.856Z,2.96
2022-08-04T13:24:09.345Z,3.06
2022-08-04T13:29:16.605Z,2.98
2022-08-04T13:31:43.680Z,3.06
2022-08-04T13:34:19.799Z,3.13
2022-08-04T13:36:48.421Z,2.92
2022-08-04T13:39:16.224Z,3.15
2022-08-04T13:41:47.390Z,3.32
2022-08-04T13:44:29.211Z,3.34
2022-08-04T13:46:55.766Z,3.55
2022-08-04T13:49:38.001Z,4.46
2022-08-04T13:52:11.404Z,3.21
2022-08-04T13:54:42.463Z,2.94
2022-08-04T13:57:11.453Z,2.94
2022-08-04T13:59:38.385Z,2.93
2022-08-04T14:02:05.037Z,2.75
2022-08-04T14:04:34.000Z,2.67
2022-08-04T14:07:01.706Z,2.45
2022-08-04T14:09:35.188Z,2.66
2022-08-04T14:21:27.137Z,2.80
2022-08-04T14:23:54.781Z,2.62
2022-08-04T14:26:21.540Z,2.33
2022-08-04T14:29:26.457Z,2.40
2022-08-04T14:31:59.846Z,2.55
2022-08-04T14:34:26.761Z,2.53
2022-08-04T14:37:17.143Z,2.61
2022-08-04T14:40:17.495Z,2.74
2022-08-04T14:42:38.193Z,2.79
2022-08-04T14:45:05.172Z,2.73
2022-08-04T14:47:32.286Z,2.61
2022-08-04T14:49:59.560Z,2.60
2022-08-04T14:52:26.364Z,2.82
2022-08-04T14:54:53.462Z,3.02
2022-08-04T14:57:20.311Z,2.79
2022-08-04T15:00:01.625Z,2.70
2022-08-04T15:02:30.583Z,2.77
2022-08-04T15:04:57.765Z,2.81
2022-08-04T15:07:26.668Z,3.48
2022-08-04T15:09:53.651Z,2.58
2022-08-04T15:12:20.555Z,2.49
2022-08-04T15:14:47.657Z,2.73
2022-08-04T15:17:30.227Z,2.90
2022-08-04T15:19:58.490Z,2.63
2022-08-04T15:22:28.077Z,2.67
2022-08-04T15:24:56.049Z,2.44
2022-08-04T15:27:23.807Z,2.49
2022-08-04T15:29:59.147Z,2.69
2022-08-04T15:32:27.016Z,2.50
2022-08-04T15:34:53.962Z,2.54
2022-08-04T15:37:22.276Z,2.33
2022-08-04T15:39:48.909Z,2.59
2022-08-04T15:42:20.889Z,2.77
2022-08-04T15:44:48.080Z,2.90
2022-08-04T15:47:17.100Z,2.89
2022-08-04T15:49:44.076Z,2.95
2022-08-04T15:52:22.554Z,2.72
2022-08-04T15:54:52.392Z,2.62
2022-08-04T15:57:20.546Z,2.52
2022-08-04T15:59:47.431Z,2.73
2022-08-04T16:02:16.823Z,2.50
2022-08-04T16:04:43.794Z,2.70
2022-08-04T16:07:10.751Z,2.90
2022-08-04T16:09:45.700Z,2.44
2022-08-04T16:12:13.886Z,2.54
2022-08-04T16:14:42.057Z,2.99
2022-08-04T16:17:08.650Z,2.86
2022-08-04T16:19:35.899Z,2.80
2022-08-04T16:22:02.959Z,2.62
2022-08-04T16:24:29.716Z,2.89
2022-08-04T16:26:56.882Z,3.21
2022-08-04T16:29:23.881Z,2.91
2022-08-04T16:31:53.288Z,2.80
2022-08-04T16:34:50.146Z,2.75
2022-08-04T16:37:06.672Z,2.91
2022-08-04T16:39:51.253Z,2.71
2022-08-04T16:42:19.290Z,2.65
2022-08-04T16:44:53.742Z,2.51
2022-08-04T16:47:22.451Z,2.64
2022-08-04T16:49:52.049Z,2.83
2022-08-04T16:52:18.875Z,2.74
2022-08-04T16:54:47.853Z,2.49
2022-08-04T16:57:18.001Z,2.46
2022-08-04T16:59:45.098Z,2.94
2022-08-04T17:02:12.406Z,2.72
2022-08-04T17:04:39.680Z,2.80
2022-08-04T17:07:07.102Z,2.76
2022-08-04T17:09:34.229Z,2.85
2022-08-04T17:12:01.376Z,2.81
2022-08-04T17:14:30.471Z,2.66
2022-08-04T17:16:59.410Z,2.80
2022-08-04T17:19:30.763Z,2.44
2022-08-04T17:22:04.221Z,2.76
2022-08-04T17:24:32.101Z,2.83
2022-08-04T17:26:59.563Z,2.67
2022-08-04T17:29:43.268Z,2.82
2022-08-04T17:32:13.554Z,2.98
2022-08-04T17:34:40.325Z,2.62
2022-08-04T17:37:36.668Z,2.71
2022-08-04T17:40:02.538Z,2.93
2022-08-04T17:42:29.314Z,2.62
2022-08-04T17:44:56.860Z,2.72
2022-08-04T17:47:24.452Z,3.19
2022-08-04T17:49:53.139Z,3.14
2022-08-04T17:52:32.400Z,3.14
2022-08-04T17:55:07.047Z,3.27
2022-08-04T17:57:43.948Z,2.86
2022-08-04T18:00:19.566Z,2.97
2022-08-04T18:02:47.346Z,3.07
2022-08-04T18:05:17.078Z,3.13
2022-08-04T18:08:45.631Z,3.33
2022-08-04T18:10:39.755Z,3.54
2022-08-04T18:13:21.446Z,2.95
2022-08-04T18:15:48.835Z,3.40
2022-08-04T18:18:20.801Z,3.06
2022-08-04T18:20:49.976Z,2.95
2022-08-04T18:23:17.065Z,3.15
2022-08-04T18:25:50.974Z,3.26
2022-08-04T18:28:26.609Z,3.54
2022-08-04T18:30:56.284Z,3.40
2022-08-04T18:33:40.419Z,3.64
2022-08-04T18:36:33.962Z,3.82
2022-08-04T18:38:58.913Z,3.45
2022-08-04T18:41:26.407Z,3.77
2022-08-04T18:43:55.747Z,3.39
2022-08-04T18:46:26.866Z,3.18
2022-08-04T18:48:54.558Z,3.01
2022-08-04T18:54:11.506Z,2.88
2022-08-04T18:56:40.256Z,2.84
2022-08-04T18:59:25.834Z,3.00
2022-08-04T19:02:13.171Z,2.64
2022-08-04T19:04:41.803Z,2.93
2022-08-04T19:07:24.561Z,2.84
2022-08-04T19:09:57.692Z,2.81
2022-08-04T19:12:28.112Z,3.18
2022-08-04T19:14:58.916Z,2.70
2022-08-04T19:17:55.201Z,2.89
2022-08-04T19:20:25.642Z,3.04
2022-08-04T19:24:29.422Z,3.35
2022-08-04T19:25:59.018Z,3.05
2022-08-04T19:28:34.123Z,2.82
2022-08-04T19:31:01.845Z,2.95
2022-08-04T19:33:58.302Z,2.95
2022-08-04T19:36:17.174Z,2.74
2022-08-04T19:38:45.930Z,2.88
2022-08-04T19:43:59.738Z,2.93
2022-08-04T19:46:37.576Z,2.91
2022-08-04T19:49:09.271Z,2.87
2022-08-04T19:52:08.698Z,2.82
2022-08-04T19:54:36.290Z,2.97
2022-08-04T19:57:09.762Z,2.90
2022-08-04T19:59:48.187Z,3.04
2022-08-04T20:02:15.325Z,3.40
2022-08-04T20:04:42.771Z,3.00
2022-08-04T20:07:14.200Z,3.07
2022-08-04T20:09:41.266Z,3.06
2022-08-04T20:12:20.484Z,2.95
2022-08-04T20:14:48.343Z,2.99
2022-08-04T20:17:18.767Z,3.07
2022-08-04T20:19:51.469Z,2.95
2022-08-04T20:22:50.553Z,3.07
2022-08-04T20:25:27.377Z,3.00
2022-08-04T20:28:00.398Z,3.17
2022-08-04T20:30:28.845Z,3.49
2022-08-04T20:33:06.876Z,3.32
2022-08-04T20:36:03.341Z,2.99
2022-08-04T20:38:33.221Z,3.09
2022-08-04T20:41:01.459Z,2.77
2022-08-04T20:43:31.126Z,2.71
2022-08-04T20:45:59.398Z,2.96
2022-08-04T20:48:26.581Z,2.69
2022-08-04T20:50:53.584Z,2.66
2022-08-04T20:53:20.740Z,2.56
2022-08-04T20:56:02.935Z,2.65
2022-08-04T20:58:39.304Z,2.16
2022-08-04T21:04:00.656Z,2.00
2022-08-04T21:06:27.735Z,2.16
2022-08-04T21:08:56.823Z,1.97
2022-08-04T21:11:25.270Z,2.12
2022-08-04T21:14:02.725Z,2.15
2022-08-04T21:16:55.621Z,1.89
2022-08-04T21:19:22.579Z,2.16
2022-08-04T21:21:54.899Z,2.21
2022-08-04T21:24:26.076Z,2.09
2022-08-04T21:26:56.562Z,1.95
2022-08-04T21:29:34.860Z,2.10
2022-08-04T21:32:01.961Z,2.07
2022-08-04T21:34:37.902Z,2.15
2022-08-04T21:37:06.323Z,2.18
2022-08-04T21:39:50.081Z,2.24
2022-08-04T21:42:30.632Z,2.42
2022-08-04T21:45:03.530Z,2.26
2022-08-04T21:47:46.183Z,1.98
2022-08-04T21:50:19.866Z,2.30
2022-08-04T21:52:47.088Z,2.09
2022-08-04T21:55:21.199Z,2.34
2022-08-04T21:57:49.567Z,2.33
2022-08-04T22:00:18.508Z,2.32
2022-08-04T22:02:53.388Z,2.56
2022-08-04T22:05:20.769Z,2.51
2022-08-04T22:07:50.960Z,2.34
2022-08-04T22:10:32.587Z,2.47
2022-08-04T22:13:06.777Z,2.30
2022-08-04T22:16:04.975Z,2.37
2022-08-04T22:21:02.748Z,2.33
2022-08-04T22:23:29.345Z,2.34
2022-08-04T22:28:37.659Z,2.36
2022-08-04T22:31:23.941Z,2.54
2022-08-04T22:33:54.725Z,2.23
2022-08-04T22:36:24.591Z,2.41
2022-08-04T22:39:04.288Z,2.33
2022-08-04T22:41:34.176Z,2.28
2022-08-04T22:44:16.569Z,2.12
2022-08-04T22:46:43.936Z,2.14
2022-08-04T22:49:12.351Z,2.16
2022-08-04T22:51:39.509Z,2.20
2022-08-04T22:54:18.263Z,2.11
2022-08-04T22:56:47.603Z,1.97
2022-08-04T22:59:17.892Z,2.13
2022-08-04T23:01:59.693Z,2.17
2022-08-04T23:04:27.900Z,2.06
2022-08-04T23:06:54.944Z,2.31
2022-08-04T23:09:22.265Z,2.19
2022-08-04T23:12:24.522Z,2.27
2022-08-04T23:14:56.940Z,2.26
2022-08-04T23:17:27.444Z,2.24
2022-08-04T23:19:57.516Z,2.24
2022-08-04T23:22:37.018Z,2.61
2022-08-04T23:25:16.581Z,2.76
2022-08-04T23:27:43.757Z,2.67
2022-08-04T23:30:12.986Z,2.50
2022-08-04T23:32:43.253Z,2.47
2022-08-04T23:35:15.721Z,2.58
2022-08-04T23:37:56.289Z,2.86
2022-08-04T23:40:33.531Z,2.75
2022-08-04T23:43:12.336Z,2.57
2022-08-04T23:46:07.832Z,2.43
2022-08-04T23:48:31.868Z,2.66
2022-08-04T23:50:59.767Z,2.77
2022-08-04T23:53:27.686Z,2.81
2022-08-04T23:55:54.647Z,2.51
2022-08-04T23:58:26.846Z,2.36
